createdAt,value
2018-09-01T00:00:45.410Z,1018.91
2018-09-01T00:01:45.373Z,1018.91
2018-09-01T00:02:45.330Z,1018.95
2018-09-01T00:03:45.289Z,1018.94
2018-09-01T00:04:45.277Z,1018.92
2018-09-01T00:05:45.215Z,1018.93
2018-09-01T00:06:45.171Z,1018.92
2018-09-01T00:07:45.131Z,1018.95
2018-09-01T00:08:45.087Z,1018.96
2018-09-01T00:09:45.043Z,1018.94
2018-09-01T00:10:45.032Z,1018.96
2018-09-01T00:11:44.968Z,1018.99
2018-09-01T00:12:44.916Z,1019.02
2018-09-01T00:13:44.882Z,1019.03
2018-09-01T00:14:44.837Z,1019.01
2018-09-01T00:15:44.819Z,1019.00
2018-09-01T00:16:44.762Z,1019.00
2018-09-01T00:17:44.717Z,1018.97
2018-09-01T00:18:44.682Z,1018.96
2018-09-01T00:19:44.638Z,1019.00
2018-09-01T00:20:44.615Z,1018.98
2018-09-01T00:21:44.546Z,1018.97
2018-09-01T00:22:44.510Z,1018.99
2018-09-01T00:23:44.468Z,1018.96
2018-09-01T00:24:44.436Z,1018.95
2018-09-01T00:25:44.420Z,1018.94
2018-09-01T00:26:44.344Z,1018.94
2018-09-01T00:27:44.301Z,1018.96
2018-09-01T00:28:44.269Z,1018.96
2018-09-01T00:29:44.230Z,1018.97
2018-09-01T00:30:44.204Z,1018.99
2018-09-01T00:31:44.167Z,1018.99
2018-09-01T00:32:44.097Z,1018.98
2018-09-01T00:33:44.060Z,1018.95
2018-09-01T00:34:44.015Z,1019.00
2018-09-01T00:35:43.986Z,1018.98
2018-09-01T00:36:43.962Z,1019.00
2018-09-01T00:37:43.898Z,1019.02
2018-09-01T00:38:43.861Z,1018.99
2018-09-01T00:39:43.818Z,1019.02
2018-09-01T00:40:43.770Z,1019.01
2018-09-01T00:41:43.752Z,1019.03
2018-09-01T00:42:43.692Z,1019.03
2018-09-01T00:43:43.654Z,1019.05
2018-09-01T00:44:43.600Z,1019.06
2018-09-01T00:45:43.564Z,1019.08
2018-09-01T00:46:43.525Z,1019.06
2018-09-01T00:47:43.500Z,1019.06
2018-09-01T00:48:43.443Z,1019.07
2018-09-01T00:49:43.406Z,1019.08
2018-09-01T00:50:43.362Z,1019.13
2018-09-01T00:51:43.327Z,1019.18
2018-09-01T00:52:43.294Z,1019.11
2018-09-01T00:53:43.235Z,1019.13
2018-09-01T00:54:43.193Z,1019.13
2018-09-01T00:55:43.150Z,1019.14
2018-09-01T00:56:43.118Z,1019.11
2018-09-01T00:57:43.100Z,1019.15
2018-09-01T00:58:43.025Z,1019.14
2018-09-01T00:59:42.984Z,1019.15
2018-09-01T01:00:42.950Z,1019.16
2018-09-01T01:01:42.909Z,1019.17
2018-09-01T01:02:42.898Z,1019.21
2018-09-01T01:03:42.824Z,1019.21
2018-09-01T01:04:42.778Z,1019.17
2018-09-01T01:05:53.076Z,1019.12
2018-09-01T01:06:42.700Z,1019.13
2018-09-01T01:07:42.692Z,1019.15
2018-09-01T01:08:42.619Z,1019.18
2018-09-01T01:09:42.579Z,1019.13
2018-09-01T01:10:42.540Z,1019.19
2018-09-01T01:11:42.489Z,1019.19
2018-09-01T01:12:42.464Z,1019.14
2018-09-01T01:13:42.441Z,1019.20
2018-09-01T01:14:42.364Z,1019.16
2018-09-01T01:15:42.331Z,1019.18
2018-09-01T01:16:42.281Z,1019.16
2018-09-01T01:17:42.245Z,1019.14
2018-09-01T01:18:42.230Z,1019.16
2018-09-01T01:19:42.166Z,1019.15
2018-09-01T01:20:42.130Z,1019.17
2018-09-01T01:21:42.082Z,1019.14
2018-09-01T01:22:42.038Z,1019.17
2018-09-01T01:23:42.021Z,1019.18
2018-09-01T01:24:41.956Z,1019.16
2018-09-01T01:25:52.133Z,1019.17
2018-09-01T01:26:41.872Z,1019.16
2018-09-01T01:27:41.834Z,1019.14
2018-09-01T01:28:41.793Z,1019.15
2018-09-01T01:29:41.773Z,1019.12
2018-09-01T01:30:41.722Z,1019.14
2018-09-01T01:31:41.669Z,1019.15
2018-09-01T01:32:41.629Z,1019.16
2018-09-01T01:33:41.577Z,1019.13
2018-09-01T01:34:41.558Z,1019.14
2018-09-01T01:35:41.495Z,1019.21
2018-09-01T01:36:41.466Z,1019.19
2018-09-01T01:37:41.425Z,1019.22
2018-09-01T01:38:41.383Z,1019.25
2018-09-01T01:39:41.368Z,1019.27
2018-09-01T01:40:41.289Z,1019.27
2018-09-01T01:41:41.259Z,1019.27
2018-09-01T01:42:41.215Z,1019.27
2018-09-01T01:43:41.171Z,1019.26
2018-09-01T01:44:41.125Z,1019.27
2018-09-01T01:45:41.106Z,1019.29
2018-09-01T01:46:51.162Z,1019.27
2018-09-01T01:47:41.012Z,1019.25
2018-09-01T01:48:40.966Z,1019.22
2018-09-01T01:49:41.019Z,1019.22
2018-09-01T01:50:40.908Z,1019.22
2018-09-01T01:51:40.863Z,1019.19
2018-09-01T01:52:40.795Z,1019.20
2018-09-01T01:53:40.751Z,1019.16
2018-09-01T01:54:40.715Z,1019.23
2018-09-01T01:55:40.676Z,1019.19
2018-09-01T01:56:40.649Z,1019.19
2018-09-01T01:57:40.586Z,1019.20
2018-09-01T01:58:40.554Z,1019.20
2018-09-01T01:59:40.511Z,1019.20
2018-09-01T02:00:40.467Z,1019.16
2018-09-01T02:01:40.446Z,1019.19
2018-09-01T02:02:40.381Z,1019.20
2018-09-01T02:03:40.338Z,1019.21
2018-09-01T02:04:40.297Z,1019.23
2018-09-01T02:05:40.253Z,1019.23
2018-09-01T02:06:40.241Z,1019.22
2018-09-01T02:07:40.173Z,1019.27
2018-09-01T02:08:40.139Z,1019.26
2018-09-01T02:09:40.092Z,1019.24
2018-09-01T02:10:40.042Z,1019.26
2018-09-01T02:11:40.030Z,1019.25
2018-09-01T02:12:39.969Z,1019.23
2018-09-01T02:13:39.931Z,1019.22
2018-09-01T02:14:39.876Z,1019.21
2018-09-01T02:15:39.840Z,1019.21
2018-09-01T02:16:39.794Z,1019.19
2018-09-01T02:17:39.776Z,1019.21
2018-09-01T02:18:39.719Z,1019.20
2018-09-01T02:19:39.677Z,1019.15
2018-09-01T02:20:39.641Z,1019.17
2018-09-01T02:21:39.595Z,1019.15
2018-09-01T02:22:39.568Z,1019.17
2018-09-01T02:23:39.503Z,1019.19
2018-09-01T02:24:39.461Z,1019.17
2018-09-01T02:25:39.419Z,1019.16
2018-09-01T02:26:39.388Z,1019.16
2018-09-01T02:27:39.376Z,1019.16
2018-09-01T02:28:39.300Z,1019.16
2018-09-01T02:29:39.257Z,1019.17
2018-09-01T02:30:39.222Z,1019.16
2018-09-01T02:31:39.181Z,1019.16
2018-09-01T02:32:39.158Z,1019.18
2018-09-01T02:33:39.096Z,1019.24
2018-09-01T02:34:39.047Z,1019.20
2018-09-01T02:35:39.009Z,1019.18
2018-09-01T02:36:38.963Z,1019.21
2018-09-01T02:37:38.946Z,1019.21
2018-09-01T02:38:38.890Z,1019.21
2018-09-01T02:39:38.848Z,1019.15
2018-09-01T02:40:38.810Z,1019.19
2018-09-01T02:41:38.768Z,1019.17
2018-09-01T02:42:38.741Z,1019.19
2018-09-01T02:43:38.671Z,1019.18
2018-09-01T02:44:38.637Z,1019.17
2018-09-01T02:45:38.601Z,1019.16
2018-09-01T02:46:38.547Z,1019.18
2018-09-01T02:47:38.535Z,1019.17
2018-09-01T02:48:38.464Z,1019.20
2018-09-01T02:49:38.424Z,1019.20
2018-09-01T02:50:38.388Z,1019.20
2018-09-01T02:51:38.347Z,1019.20
2018-09-01T02:52:38.327Z,1019.21
2018-09-01T02:53:38.268Z,1019.22
2018-09-01T02:54:38.219Z,1019.24
2018-09-01T02:55:38.174Z,1019.22
2018-09-01T02:56:38.129Z,1019.21
2018-09-01T02:57:38.111Z,1019.23
2018-09-01T02:58:38.055Z,1019.21
2018-09-01T02:59:38.014Z,1019.18
2018-09-01T03:00:37.966Z,1019.20
2018-09-01T03:01:37.921Z,1019.19
2018-09-01T03:02:37.914Z,1019.20
2018-09-01T03:03:37.845Z,1019.17
2018-09-01T03:04:37.806Z,1019.14
2018-09-01T03:05:37.767Z,1019.15
2018-09-01T03:06:37.718Z,1019.17
2018-09-01T03:07:37.671Z,1019.18
2018-09-01T03:08:37.651Z,1019.22
2018-09-01T03:09:37.594Z,1019.21
2018-09-01T03:10:37.555Z,1019.21
2018-09-01T03:11:37.512Z,1019.23
2018-09-01T03:12:37.474Z,1019.25
2018-09-01T03:13:37.457Z,1019.25
2018-09-01T03:14:37.379Z,1019.25
2018-09-01T03:15:37.346Z,1019.29
2018-09-01T03:16:37.306Z,1019.31
2018-09-01T03:17:37.270Z,1019.29
2018-09-01T03:18:37.236Z,1019.31
2018-09-01T03:19:37.172Z,1019.27
2018-09-01T03:20:37.129Z,1019.31
2018-09-01T03:21:37.087Z,1019.30
2018-09-01T03:22:37.054Z,1019.31
2018-09-01T03:23:37.042Z,1019.32
2018-09-01T03:24:36.972Z,1019.34
2018-09-01T03:25:47.213Z,1019.32
2018-09-01T03:26:36.882Z,1019.36
2018-09-01T03:27:36.840Z,1019.37
2018-09-01T03:28:36.814Z,1019.39
2018-09-01T03:29:36.783Z,1019.36
2018-09-01T03:30:36.712Z,1019.40
2018-09-01T03:31:36.675Z,1019.40
2018-09-01T03:32:36.637Z,1019.38
2018-09-01T03:33:36.595Z,1019.38
2018-09-01T03:34:36.572Z,1019.36
2018-09-01T03:35:36.516Z,1019.33
2018-09-01T03:36:36.463Z,1019.41
2018-09-01T03:37:36.420Z,1019.37
2018-09-01T03:38:36.382Z,1019.36
2018-09-01T03:39:36.367Z,1019.35
2018-09-01T03:40:36.304Z,1019.34
2018-09-01T03:41:36.263Z,1019.34
2018-09-01T03:42:36.223Z,1019.35
2018-09-01T03:43:36.181Z,1019.35
2018-09-01T03:44:36.127Z,1019.36
2018-09-01T03:45:36.112Z,1019.35
2018-09-01T03:46:36.052Z,1019.37
2018-09-01T03:47:36.010Z,1019.41
2018-09-01T03:48:35.963Z,1019.39
2018-09-01T03:49:35.922Z,1019.40
2018-09-01T03:50:35.901Z,1019.40
2018-09-01T03:51:35.845Z,1019.42
2018-09-01T03:52:35.802Z,1019.40
2018-09-01T03:53:35.759Z,1019.41
2018-09-01T03:54:35.721Z,1019.41
2018-09-01T03:55:35.709Z,1019.43
2018-09-01T03:56:35.628Z,1019.41
2018-09-01T03:57:35.597Z,1019.41
2018-09-01T03:58:35.542Z,1019.41
2018-09-01T03:59:35.505Z,1019.43
2018-09-01T04:00:35.472Z,1019.42
2018-09-01T04:01:35.448Z,1019.42
2018-09-01T04:02:35.378Z,1019.40
2018-09-01T04:03:35.336Z,1019.43
2018-09-01T04:04:35.304Z,1019.45
2018-09-01T04:05:45.753Z,1019.42
2018-09-01T04:06:35.241Z,1019.45
2018-09-01T04:07:35.166Z,1019.43
2018-09-01T04:08:35.125Z,1019.47
2018-09-01T04:09:35.089Z,1019.46
2018-09-01T04:10:35.050Z,1019.44
2018-09-01T04:11:35.037Z,1019.50
2018-09-01T04:12:34.964Z,1019.46
2018-09-01T04:13:34.924Z,1019.39
2018-09-01T04:14:34.876Z,1019.41
2018-09-01T04:15:34.832Z,1019.37
2018-09-01T04:16:34.818Z,1019.42
2018-09-01T04:17:34.755Z,1019.40
2018-09-01T04:18:34.709Z,1019.40
2018-09-01T04:19:34.671Z,1019.41
2018-09-01T04:20:34.624Z,1019.41
2018-09-01T04:21:34.608Z,1019.47
2018-09-01T04:22:34.550Z,1019.42
2018-09-01T04:23:34.512Z,1019.40
2018-09-01T04:24:34.465Z,1019.42
2018-09-01T04:25:34.430Z,1019.43
2018-09-01T04:26:34.375Z,1019.45
2018-09-01T04:27:34.362Z,1019.42
2018-09-01T04:28:34.291Z,1019.44
2018-09-01T04:29:34.247Z,1019.45
2018-09-01T04:30:34.217Z,1019.49
2018-09-01T04:31:34.173Z,1019.49
2018-09-01T04:32:34.153Z,1019.48
2018-09-01T04:33:34.083Z,1019.51
2018-09-01T04:34:34.051Z,1019.53
2018-09-01T04:35:34.011Z,1019.54
2018-09-01T04:36:33.964Z,1019.55
2018-09-01T04:37:33.921Z,1019.56
2018-09-01T04:38:33.897Z,1019.53
2018-09-01T04:39:33.835Z,1019.58
2018-09-01T04:40:33.795Z,1019.59
2018-09-01T04:41:33.754Z,1019.57
2018-09-01T04:42:33.713Z,1019.66
2018-09-01T04:43:33.693Z,1019.66
2018-09-01T04:44:33.634Z,1019.65
2018-09-01T04:45:43.785Z,1019.65
2018-09-01T04:46:33.553Z,1019.67
2018-09-01T04:47:33.509Z,1019.68
2018-09-01T04:48:33.474Z,1019.68
2018-09-01T04:49:33.413Z,1019.70
2018-09-01T04:50:33.373Z,1019.67
2018-09-01T04:51:33.329Z,1019.69
2018-09-01T04:52:33.299Z,1019.73
2018-09-01T04:53:33.290Z,1019.70
2018-09-01T04:54:33.210Z,1019.70
2018-09-01T04:55:33.168Z,1019.73
2018-09-01T04:56:33.121Z,1019.76
2018-09-01T04:57:33.077Z,1019.82
2018-09-01T04:58:33.037Z,1019.82
2018-09-01T04:59:33.014Z,1019.85
2018-09-01T05:00:32.961Z,1019.86
2018-09-01T05:01:32.919Z,1019.88
2018-09-01T05:02:32.873Z,1019.85
2018-09-01T05:03:32.828Z,1019.91
2018-09-01T05:04:32.823Z,1019.90
2018-09-01T05:05:32.752Z,1019.92
2018-09-01T05:06:32.711Z,1019.90
2018-09-01T05:07:32.667Z,1019.92
2018-09-01T05:08:32.624Z,1019.94
2018-09-01T05:09:32.606Z,1019.96
2018-09-01T05:10:32.541Z,1019.95
2018-09-01T05:11:32.494Z,1019.93
2018-09-01T05:12:32.463Z,1019.95
2018-09-01T05:13:32.421Z,1019.97
2018-09-01T05:14:32.381Z,1019.96
2018-09-01T05:15:32.360Z,1019.96
2018-09-01T05:16:32.289Z,1019.99
2018-09-01T05:17:32.254Z,1020.00
2018-09-01T05:18:32.215Z,1020.05
2018-09-01T05:19:32.172Z,1020.03
2018-09-01T05:20:32.141Z,1020.05
2018-09-01T05:21:32.078Z,1020.01
2018-09-01T05:22:32.041Z,1020.05
2018-09-01T05:23:32.002Z,1020.08
2018-09-01T05:24:31.967Z,1020.05
2018-09-01T05:25:42.856Z,1020.06
2018-09-01T05:26:31.873Z,1020.06
2018-09-01T05:27:31.839Z,1020.07
2018-09-01T05:28:31.795Z,1020.08
2018-09-01T05:29:31.751Z,1020.08
2018-09-01T05:30:31.743Z,1020.07
2018-09-01T05:31:31.680Z,1020.11
2018-09-01T05:32:31.625Z,1020.10
2018-09-01T05:33:31.598Z,1020.09
2018-09-01T05:34:31.557Z,1020.08
2018-09-01T05:35:31.516Z,1020.12
2018-09-01T05:36:31.499Z,1020.12
2018-09-01T05:37:31.429Z,1020.18
2018-09-01T05:38:31.388Z,1020.13
2018-09-01T05:39:31.338Z,1020.16
2018-09-01T05:40:31.300Z,1020.16
2018-09-01T05:41:31.276Z,1020.15
2018-09-01T05:42:31.223Z,1020.20
2018-09-01T05:43:31.185Z,1020.23
2018-09-01T05:44:31.142Z,1020.25
2018-09-01T05:45:31.105Z,1020.28
2018-09-01T05:46:31.078Z,1020.34
2018-09-01T05:47:31.010Z,1020.36
2018-09-01T05:48:30.977Z,1020.40
2018-09-01T05:49:30.936Z,1020.40
2018-09-01T05:50:30.889Z,1020.46
2018-09-01T05:51:30.845Z,1020.50
2018-09-01T05:52:30.836Z,1020.52
2018-09-01T05:53:30.777Z,1020.54
2018-09-01T05:54:30.742Z,1020.50
2018-09-01T05:55:30.699Z,1020.56
2018-09-01T05:56:30.655Z,1020.57
2018-09-01T05:57:30.636Z,1020.58
2018-09-01T05:58:30.569Z,1020.57
2018-09-01T05:59:30.529Z,1020.61
2018-09-01T06:00:30.547Z,1020.66
2018-09-01T06:01:30.456Z,1020.65
2018-09-01T06:02:30.441Z,1020.69
2018-09-01T06:03:30.387Z,1020.71
2018-09-01T06:04:41.391Z,1020.75
2018-09-01T06:05:30.315Z,1020.76
2018-09-01T06:06:30.332Z,1020.77
2018-09-01T06:07:30.256Z,1020.78
2018-09-01T06:08:30.185Z,1020.81
2018-09-01T06:09:30.149Z,1020.80
2018-09-01T06:10:30.139Z,1020.80
2018-09-01T06:11:30.072Z,1020.79
2018-09-01T06:12:30.042Z,1020.85
2018-09-01T06:13:30.027Z,1020.85
2018-09-01T06:14:29.973Z,1020.86
2018-09-01T06:15:29.933Z,1020.84
2018-09-01T06:16:29.889Z,1020.92
2018-09-01T06:17:29.932Z,1020.88
2018-09-01T06:18:29.849Z,1020.92
2018-09-01T06:19:29.787Z,1020.94
2018-09-01T06:20:29.737Z,1020.94
2018-09-01T06:21:29.704Z,1021.00
2018-09-01T06:22:29.675Z,1020.99
2018-09-01T06:23:29.656Z,1021.01
2018-09-01T06:24:39.923Z,1021.07
2018-09-01T06:25:29.567Z,1021.08
2018-09-01T06:26:29.529Z,1021.13
2018-09-01T06:27:29.489Z,1021.17
2018-09-01T06:28:29.455Z,1021.15
2018-09-01T06:29:29.438Z,1021.19
2018-09-01T06:30:29.385Z,1021.20
2018-09-01T06:31:29.352Z,1021.17
2018-09-01T06:32:29.310Z,1021.17
2018-09-01T06:33:29.274Z,1021.18
2018-09-01T06:34:29.272Z,1021.16
2018-09-01T06:35:29.211Z,1021.17
2018-09-01T06:36:29.174Z,1021.19
2018-09-01T06:37:29.149Z,1021.20
2018-09-01T06:38:29.100Z,1021.20
2018-09-01T06:39:29.088Z,1021.21
2018-09-01T06:40:29.024Z,1021.23
2018-09-01T06:41:28.997Z,1021.23
2018-09-01T06:42:28.967Z,1021.25
2018-09-01T06:43:28.934Z,1021.29
2018-09-01T06:44:38.472Z,1021.27
2018-09-01T06:45:28.852Z,1021.29
2018-09-01T06:46:28.837Z,1021.29
2018-09-01T06:47:28.794Z,1021.29
2018-09-01T06:48:28.752Z,1021.26
2018-09-01T06:49:28.716Z,1021.25
2018-09-01T06:50:28.706Z,1021.27
2018-09-01T06:51:28.653Z,1021.31
2018-09-01T06:52:28.618Z,1021.39
2018-09-01T06:53:28.588Z,1021.50
2018-09-01T06:54:28.550Z,1021.66
2018-09-01T06:55:28.543Z,1021.77
2018-09-01T06:56:28.475Z,1021.86
2018-09-01T06:57:28.441Z,1021.89
2018-09-01T06:58:28.423Z,1021.90
2018-09-01T06:59:28.375Z,1021.85
2018-09-01T07:00:28.367Z,1021.85
2018-09-01T07:01:28.311Z,1021.86
2018-09-01T07:02:28.274Z,1021.81
2018-09-01T07:03:28.243Z,1021.78
2018-09-01T07:04:38.496Z,1021.76
2018-09-01T07:05:28.203Z,1021.76
2018-09-01T07:06:28.136Z,1021.76
2018-09-01T07:07:28.106Z,1021.72
2018-09-01T07:08:28.073Z,1021.77
2018-09-01T07:09:28.040Z,1021.79
2018-09-01T07:10:28.046Z,1021.79
2018-09-01T07:11:27.975Z,1021.85
2018-09-01T07:12:27.944Z,1021.86
2018-09-01T07:13:27.911Z,1021.89
2018-09-01T07:14:27.868Z,1021.88
2018-09-01T07:15:27.837Z,1021.91
2018-09-01T07:16:27.839Z,1021.94
2018-09-01T07:17:27.780Z,1021.93
2018-09-01T07:18:27.741Z,1021.94
2018-09-01T07:19:27.704Z,1021.98
2018-09-01T07:20:27.672Z,1021.95
2018-09-01T07:21:27.663Z,1022.08
2018-09-01T07:22:27.612Z,1022.09
2018-09-01T07:23:27.581Z,1022.16
2018-09-01T07:24:27.552Z,1022.24
2018-09-01T07:25:38.534Z,1022.25
2018-09-01T07:26:27.496Z,1022.31
2018-09-01T07:27:27.442Z,1022.33
2018-09-01T07:28:27.416Z,1022.39
2018-09-01T07:29:27.384Z,1022.48
2018-09-01T07:30:27.511Z,1022.57
2018-09-01T07:31:27.713Z,1022.62
2018-09-01T07:32:27.287Z,1022.67
2018-09-01T07:33:27.254Z,1022.82
2018-09-01T07:34:27.219Z,1023.01
2018-09-01T07:35:27.188Z,1023.11
2018-09-01T07:36:27.149Z,1023.24
2018-09-01T07:37:27.138Z,1023.37
2018-09-01T07:38:27.088Z,1023.46
2018-09-01T07:39:27.052Z,1023.41
2018-09-01T07:40:27.037Z,1023.28
2018-09-01T07:41:26.992Z,1023.09
2018-09-01T07:42:26.981Z,1022.93
2018-09-01T07:43:26.928Z,1022.87
2018-09-01T07:44:26.888Z,1022.83
2018-09-01T07:45:26.864Z,1022.76
2018-09-01T07:46:26.834Z,1022.69
2018-09-01T07:47:26.830Z,1022.64
2018-09-01T07:48:26.763Z,1022.61
2018-09-01T07:49:26.730Z,1022.53
2018-09-01T07:50:26.700Z,1022.54
2018-09-01T07:51:26.667Z,1022.52
2018-09-01T07:52:26.644Z,1022.47
2018-09-01T07:53:26.634Z,1022.44
2018-09-01T07:54:26.580Z,1022.39
2018-09-01T07:55:26.547Z,1022.40
2018-09-01T07:56:26.506Z,1022.41
2018-09-01T07:57:26.475Z,1022.43
2018-09-01T07:58:26.469Z,1022.41
2018-09-01T07:59:26.412Z,1022.40
2018-09-01T08:00:26.387Z,1022.40
2018-09-01T08:01:26.357Z,1022.37
2018-09-01T08:02:26.316Z,1022.40
2018-09-01T08:03:26.310Z,1022.36
2018-09-01T08:04:26.261Z,1022.34
2018-09-01T08:05:26.228Z,1022.34
2018-09-01T08:06:26.194Z,1022.34
2018-09-01T08:07:26.187Z,1022.37
2018-09-01T08:08:26.944Z,1022.36
2018-09-01T08:09:26.118Z,1022.37
2018-09-01T08:10:26.063Z,1022.39
2018-09-01T08:11:26.031Z,1022.36
2018-09-01T08:12:26.009Z,1022.43
2018-09-01T08:13:25.977Z,1022.42
2018-09-01T08:14:25.981Z,1022.44
2018-09-01T08:15:25.912Z,1022.46
2018-09-01T08:16:25.875Z,1022.45
2018-09-01T08:17:25.847Z,1022.42
2018-09-01T08:18:25.818Z,1022.48
2018-09-01T08:19:25.812Z,1022.48
2018-09-01T08:20:25.746Z,1022.50
2018-09-01T08:21:25.714Z,1022.52
2018-09-01T08:22:25.687Z,1022.50
2018-09-01T08:23:25.653Z,1022.55
2018-09-01T08:24:35.625Z,1022.55
2018-09-01T08:25:25.600Z,1022.59
2018-09-01T08:26:25.560Z,1022.57
2018-09-01T08:27:25.529Z,1022.54
2018-09-01T08:28:25.499Z,1022.53
2018-09-01T08:29:25.465Z,1022.31
2018-09-01T08:30:25.466Z,1022.60
2018-09-01T08:31:25.408Z,1022.52
2018-09-01T08:32:25.370Z,1022.50
2018-09-01T08:33:25.341Z,1022.51
2018-09-01T08:34:25.315Z,1022.53
2018-09-01T08:35:25.308Z,1022.56
2018-09-01T08:36:25.254Z,1022.53
2018-09-01T08:37:25.223Z,1022.54
2018-09-01T08:38:25.181Z,1022.55
2018-09-01T08:39:25.154Z,1022.53
2018-09-01T08:40:25.151Z,1022.54
2018-09-01T08:41:25.090Z,1022.53
2018-09-01T08:42:25.070Z,1022.58
2018-09-01T08:43:25.035Z,1022.56
2018-09-01T08:44:25.002Z,1022.60
2018-09-01T08:45:24.992Z,1022.55
2018-09-01T08:46:24.953Z,1022.58
2018-09-01T08:47:24.907Z,1022.59
2018-09-01T08:48:24.879Z,1022.59
2018-09-01T08:49:24.848Z,1022.59
2018-09-01T08:50:24.812Z,1022.63
2018-09-01T08:51:24.801Z,1022.62
2018-09-01T08:52:24.748Z,1022.62
2018-09-01T08:53:24.715Z,1022.65
2018-09-01T08:54:24.698Z,1022.71
2018-09-01T08:55:24.666Z,1022.72
2018-09-01T08:56:24.691Z,1022.73
2018-09-01T08:57:24.605Z,1022.74
2018-09-01T08:58:24.566Z,1022.77
2018-09-01T08:59:24.584Z,1022.78
2018-09-01T09:00:24.509Z,1022.80
2018-09-01T09:01:24.477Z,1022.78
2018-09-01T09:02:24.471Z,1022.79
2018-09-01T09:03:24.423Z,1022.74
2018-09-01T09:04:24.387Z,1022.78
2018-09-01T09:05:24.358Z,1022.76
2018-09-01T09:06:24.331Z,1022.77
2018-09-01T09:07:24.323Z,1022.79
2018-09-01T09:08:24.272Z,1022.77
2018-09-01T09:09:24.240Z,1022.78
2018-09-01T09:10:24.204Z,1022.84
2018-09-01T09:11:24.178Z,1022.81
2018-09-01T09:12:24.165Z,1022.86
2018-09-01T09:13:24.114Z,1022.83
2018-09-01T09:14:24.092Z,1022.77
2018-09-01T09:15:24.064Z,1022.78
2018-09-01T09:16:24.032Z,1022.73
2018-09-01T09:17:24.029Z,1022.69
2018-09-01T09:18:23.979Z,1022.71
2018-09-01T09:19:23.938Z,1022.71
2018-09-01T09:20:23.914Z,1022.72
2018-09-01T09:21:23.886Z,1022.72
2018-09-01T09:22:23.845Z,1022.72
2018-09-01T09:23:23.838Z,1022.72
2018-09-01T09:24:23.787Z,1022.75
2018-09-01T09:25:23.760Z,1022.75
2018-09-01T09:26:23.736Z,1022.75
2018-09-01T09:27:23.703Z,1022.76
2018-09-01T09:28:23.695Z,1022.85
2018-09-01T09:29:23.646Z,1022.83
2018-09-01T09:30:23.610Z,1022.87
2018-09-01T09:31:23.586Z,1022.79
2018-09-01T09:32:23.553Z,1022.78
2018-09-01T09:33:23.542Z,1022.82
2018-09-01T09:34:23.533Z,1022.80
2018-09-01T09:35:23.472Z,1022.84
2018-09-01T09:36:23.428Z,1022.79
2018-09-01T09:37:23.396Z,1022.80
2018-09-01T09:38:23.396Z,1022.74
2018-09-01T09:39:23.346Z,1022.76
2018-09-01T09:40:23.314Z,1022.78
2018-09-01T09:41:23.287Z,1022.79
2018-09-01T09:42:23.251Z,1022.77
2018-09-01T09:43:23.242Z,1022.78
2018-09-01T09:44:23.190Z,1022.78
2018-09-01T09:45:23.160Z,1022.77
2018-09-01T09:46:23.136Z,1022.80
2018-09-01T09:47:23.108Z,1022.78
2018-09-01T09:48:23.096Z,1022.75
2018-09-01T09:49:23.048Z,1022.72
2018-09-01T09:50:23.007Z,1022.70
2018-09-01T09:51:22.980Z,1022.74
2018-09-01T09:52:22.955Z,1022.74
2018-09-01T09:53:22.950Z,1022.72
2018-09-01T09:54:22.889Z,1022.71
2018-09-01T09:55:22.859Z,1022.71
2018-09-01T09:56:22.829Z,1022.70
2018-09-01T09:57:22.804Z,1022.68
2018-09-01T09:58:22.885Z,1022.71
2018-09-01T09:59:22.748Z,1022.74
2018-09-01T10:00:22.717Z,1022.65
2018-09-01T10:01:22.690Z,1022.70
2018-09-01T10:02:22.671Z,1022.63
2018-09-01T10:03:22.641Z,1022.65
2018-09-01T10:04:22.598Z,1022.63
2018-09-01T10:05:22.566Z,1022.71
2018-09-01T10:06:22.544Z,1022.67
2018-09-01T10:07:22.516Z,1022.68
2018-09-01T10:08:22.507Z,1022.74
2018-09-01T10:09:22.446Z,1022.68
2018-09-01T10:10:22.428Z,1022.64
2018-09-01T10:11:22.396Z,1022.72
2018-09-01T10:12:22.365Z,1022.67
2018-09-01T10:13:22.337Z,1022.54
2018-09-01T10:14:22.325Z,1022.73
2018-09-01T10:15:22.279Z,1022.63
2018-09-01T10:16:22.243Z,1022.66
2018-09-01T10:17:22.215Z,1022.69
2018-09-01T10:18:22.190Z,1022.69
2018-09-01T10:19:22.188Z,1022.76
2018-09-01T10:20:22.223Z,1022.81
2018-09-01T10:21:22.107Z,1022.77
2018-09-01T10:22:22.071Z,1022.02
2018-09-01T10:23:33.196Z,1022.71
2018-09-01T10:24:22.042Z,1022.71
2018-09-01T10:25:21.989Z,1022.67
2018-09-01T10:26:21.969Z,1022.64
2018-09-01T10:27:21.928Z,1022.09
2018-09-01T10:28:21.903Z,1022.17
2018-09-01T10:29:21.899Z,1022.64
2018-09-01T10:30:21.844Z,1022.64
2018-09-01T10:31:21.815Z,1022.63
2018-09-01T10:32:21.779Z,1022.63
2018-09-01T10:33:21.755Z,1022.63
2018-09-01T10:34:21.719Z,1022.64
2018-09-01T10:35:21.709Z,1022.66
2018-09-01T10:36:21.669Z,1022.65
2018-09-01T10:37:21.638Z,1022.09
2018-09-01T10:38:21.626Z,1022.06
2018-09-01T10:39:21.575Z,1022.14
2018-09-01T10:40:21.573Z,1022.17
2018-09-01T10:41:21.529Z,1022.62
2018-09-01T10:42:21.509Z,1022.58
2018-09-01T10:43:21.458Z,1022.07
2018-09-01T10:44:21.424Z,1021.96
2018-09-01T10:45:21.425Z,1022.03
2018-09-01T10:46:21.366Z,1022.02
2018-09-01T10:47:21.335Z,1022.00
2018-09-01T10:48:21.311Z,1021.96
2018-09-01T10:49:21.282Z,1021.92
2018-09-01T10:50:21.272Z,1021.99
2018-09-01T10:51:21.218Z,1021.99
2018-09-01T10:52:21.180Z,1021.99
2018-09-01T10:53:21.151Z,1021.96
2018-09-01T10:54:21.127Z,1021.97
2018-09-01T10:55:21.094Z,1021.95
2018-09-01T10:56:21.072Z,1021.88
2018-09-01T10:57:21.020Z,1021.86
2018-09-01T10:58:20.988Z,1021.86
2018-09-01T10:59:21.031Z,1021.99
2018-09-01T11:00:20.937Z,1021.88
2018-09-01T11:01:20.935Z,1021.90
2018-09-01T11:02:20.899Z,1021.92
2018-09-01T11:03:20.831Z,1021.92
2018-09-01T11:04:20.795Z,1021.94
2018-09-01T11:05:20.762Z,1021.95
2018-09-01T11:06:20.726Z,1021.98
2018-09-01T11:07:20.713Z,1022.01
2018-09-01T11:08:20.662Z,1022.45
2018-09-01T11:09:20.633Z,1022.47
2018-09-01T11:10:20.596Z,1022.41
2018-09-01T11:11:20.562Z,1022.40
2018-09-01T11:12:20.558Z,1022.43
2018-09-01T11:13:20.498Z,1022.34
2018-09-01T11:14:20.467Z,1022.33
2018-09-01T11:15:20.451Z,1022.35
2018-09-01T11:16:20.393Z,1022.36
2018-09-01T11:17:20.401Z,1022.25
2018-09-01T11:18:20.330Z,1021.81
2018-09-01T11:19:20.297Z,1021.84
2018-09-01T11:20:20.327Z,1021.84
2018-09-01T11:21:20.246Z,1021.84
2018-09-01T11:22:20.232Z,1021.89
2018-09-01T11:23:20.181Z,1022.20
2018-09-01T11:24:20.142Z,1022.28
2018-09-01T11:25:20.108Z,1022.29
2018-09-01T11:26:20.088Z,1022.23
2018-09-01T11:27:20.142Z,1022.26
2018-09-01T11:28:20.019Z,1022.20
2018-09-01T11:29:19.985Z,1022.27
2018-09-01T11:30:19.951Z,1022.25
2018-09-01T11:31:19.924Z,1022.30
2018-09-01T11:32:19.917Z,1022.33
2018-09-01T11:33:19.868Z,1022.32
2018-09-01T11:34:19.836Z,1022.32
2018-09-01T11:35:19.807Z,1022.28
2018-09-01T11:36:19.767Z,1022.29
2018-09-01T11:37:19.761Z,1022.28
2018-09-01T11:38:19.708Z,1022.34
2018-09-01T11:39:19.677Z,1022.40
2018-09-01T11:40:19.684Z,1022.30
2018-09-01T11:41:19.627Z,1021.98
2018-09-01T11:42:19.611Z,1022.04
2018-09-01T11:43:19.565Z,1021.89
2018-09-01T11:44:19.537Z,1021.81
2018-09-01T11:45:19.506Z,1021.97
2018-09-01T11:46:19.481Z,1022.18
2018-09-01T11:47:19.471Z,1021.83
2018-09-01T11:48:19.425Z,1021.79
2018-09-01T11:49:19.382Z,1021.78
2018-09-01T11:50:19.352Z,1021.78
2018-09-01T11:51:19.323Z,1021.72
2018-09-01T11:52:19.333Z,1021.77
2018-09-01T11:53:19.456Z,1021.79
2018-09-01T11:54:19.239Z,1021.66
2018-09-01T11:55:19.208Z,1021.63
2018-09-01T11:56:19.170Z,1021.75
2018-09-01T11:57:19.142Z,1021.66
2018-09-01T11:58:19.135Z,1021.70
2018-09-01T11:59:19.084Z,1021.63
2018-09-01T12:00:19.051Z,1021.63
2018-09-01T12:01:19.016Z,1022.14
2018-09-01T12:02:19.025Z,1022.16
2018-09-01T12:03:18.968Z,1022.20
2018-09-01T12:04:18.923Z,1022.07
2018-09-01T12:05:18.888Z,1022.04